createdAt,value
2019-04-05T00:01:09.146Z,35.60
2019-04-05T00:04:12.392Z,35.50
2019-04-05T00:07:15.646Z,35.50
2019-04-05T00:10:20.860Z,35.60
2019-04-05T00:13:30.792Z,35.60
2019-04-05T00:16:34.103Z,35.60
2019-04-05T00:19:41.304Z,35.60
2019-04-05T00:22:44.634Z,35.60
2019-04-05T00:25:47.882Z,35.60
2019-04-05T00:28:52.202Z,35.60
2019-04-05T00:31:55.493Z,35.60
2019-04-05T00:35:06.462Z,35.60
2019-04-05T00:38:09.721Z,35.60
2019-04-05T00:41:13.992Z,35.60
2019-04-05T00:44:18.317Z,35.70
2019-04-05T00:47:21.606Z,35.60
2019-04-05T00:50:24.866Z,35.70
2019-04-05T00:53:28.208Z,35.60
2019-04-05T00:56:32.409Z,35.60
2019-04-05T00:59:35.661Z,35.60
2019-04-05T01:02:38.905Z,35.60
2019-04-05T01:05:42.241Z,35.70
2019-04-05T01:08:45.550Z,35.70
2019-04-05T01:11:50.744Z,35.70
2019-04-05T01:14:54.956Z,35.70
2019-04-05T01:17:58.222Z,35.70
2019-04-05T01:21:09.342Z,35.70
2019-04-05T01:24:19.397Z,35.70
2019-04-05T01:27:23.922Z,35.70
2019-04-05T01:30:32.948Z,35.70
2019-04-05T01:33:37.190Z,35.70
2019-04-05T01:36:40.435Z,35.70
2019-04-05T01:39:43.692Z,35.70
2019-04-05T01:42:46.941Z,35.80
2019-04-05T01:45:54.036Z,35.80
2019-04-05T01:48:55.249Z,35.70
2019-04-05T01:51:59.395Z,35.70
2019-04-05T01:55:05.238Z,35.70
2019-04-05T01:58:08.498Z,35.70
2019-04-05T02:01:12.230Z,35.80
2019-04-05T02:04:15.490Z,35.80
2019-04-05T02:07:27.663Z,35.80
2019-04-05T02:10:30.969Z,35.80
2019-04-05T02:13:34.217Z,35.80
2019-04-05T02:16:40.407Z,35.80
2019-04-05T02:19:43.729Z,35.80
2019-04-05T02:22:47.053Z,35.80
2019-04-05T02:25:52.244Z,35.80
2019-04-05T02:28:55.489Z,35.90
2019-04-05T02:32:08.221Z,35.80
2019-04-05T02:35:19.242Z,35.80
2019-04-05T02:38:24.362Z,35.80
2019-04-05T02:41:31.642Z,35.90
2019-04-05T02:44:35.884Z,35.90
2019-04-05T02:47:40.015Z,35.90
2019-04-05T02:50:46.329Z,35.80
2019-04-05T02:53:50.698Z,35.90
2019-04-05T02:56:53.984Z,35.80
2019-04-05T02:59:59.137Z,35.80
2019-04-05T03:03:03.327Z,35.90
2019-04-05T03:06:13.315Z,35.80
2019-04-05T03:09:19.668Z,35.80
2019-04-05T03:12:26.029Z,35.80
2019-04-05T03:15:29.319Z,35.80
2019-04-05T03:18:32.637Z,35.80
2019-04-05T03:21:39.253Z,35.80
2019-04-05T03:24:49.369Z,35.80
2019-04-05T03:27:58.581Z,35.80
2019-04-05T03:31:01.843Z,35.80
2019-04-05T03:34:05.136Z,35.80
2019-04-05T03:37:09.577Z,35.80
2019-04-05T03:40:12.911Z,35.90
2019-04-05T03:43:17.208Z,35.80
2019-04-05T03:46:20.541Z,35.90
2019-04-05T03:49:23.822Z,35.80
2019-04-05T03:52:27.120Z,35.90
2019-04-05T03:55:30.434Z,35.90
2019-04-05T03:58:33.726Z,35.90
2019-04-05T04:01:36.995Z,35.90
2019-04-05T04:04:40.289Z,35.90
2019-04-05T04:07:43.598Z,35.90
2019-04-05T04:10:47.817Z,35.90
2019-04-05T04:13:51.142Z,35.90
2019-04-05T04:17:12.063Z,35.90
2019-04-05T04:20:45.378Z,35.90
2019-04-05T04:23:48.634Z,35.90
2019-04-05T04:26:51.921Z,35.90
2019-04-05T04:29:55.179Z,35.90
2019-04-05T04:32:59.334Z,35.90
2019-04-05T04:36:04.571Z,35.90
2019-04-05T04:39:09.755Z,35.80
2019-04-05T04:42:14.835Z,35.90
2019-04-05T04:45:24.809Z,35.80
2019-04-05T04:48:28.158Z,35.90
2019-04-05T04:51:35.337Z,35.90
2019-04-05T04:54:39.590Z,35.90
2019-04-05T04:57:48.643Z,35.90
2019-04-05T05:00:52.840Z,35.90
2019-04-05T05:03:56.096Z,35.90
2019-04-05T05:07:00.254Z,35.90
2019-04-05T05:10:05.255Z,35.90
2019-04-05T05:13:08.597Z,36.00
2019-04-05T05:16:11.942Z,35.90
2019-04-05T05:19:22.207Z,35.90
2019-04-05T05:22:27.489Z,35.90
2019-04-05T05:25:30.800Z,35.90
2019-04-05T05:28:34.079Z,35.90
2019-04-05T05:31:37.371Z,35.90
2019-04-05T05:34:46.625Z,36.00
2019-04-05T05:37:50.978Z,36.00
2019-04-05T05:40:56.289Z,36.00
2019-04-05T05:44:02.635Z,36.00
2019-04-05T05:47:06.047Z,36.00
2019-04-05T05:50:12.351Z,36.00
2019-04-05T05:53:15.633Z,36.00
2019-04-05T05:56:18.897Z,36.00
2019-04-05T05:59:22.180Z,36.00
2019-04-05T06:02:29.285Z,36.00
2019-04-05T06:05:32.550Z,36.00
2019-04-05T06:08:35.863Z,36.00
2019-04-05T06:11:39.118Z,36.00
2019-04-05T06:14:44.308Z,36.00
2019-04-05T06:17:49.557Z,36.00
2019-04-05T06:20:57.776Z,36.00
2019-04-05T06:24:01.033Z,36.00
2019-04-05T06:27:06.198Z,36.00
2019-04-05T06:30:15.253Z,36.00
2019-04-05T06:33:31.000Z,36.00
2019-04-05T06:36:23.515Z,36.00
2019-04-05T06:39:26.759Z,36.00
2019-04-05T06:42:30.026Z,36.00
2019-04-05T06:45:48.229Z,36.00
2019-04-05T06:48:52.413Z,36.00
2019-04-05T06:51:56.752Z,36.00
2019-04-05T06:55:02.058Z,36.00
2019-04-05T06:58:05.374Z,36.10
2019-04-05T07:01:09.604Z,36.00
2019-04-05T07:04:12.869Z,36.50
2019-04-05T07:07:17.907Z,35.70
2019-04-05T07:10:22.240Z,36.30
2019-04-05T07:13:27.722Z,36.30
2019-04-05T07:16:32.064Z,36.50
2019-04-05T07:19:36.230Z,36.50
2019-04-05T07:22:47.308Z,36.60
2019-04-05T07:25:55.508Z,36.60
2019-04-05T07:28:59.863Z,36.60
2019-04-05T07:32:03.143Z,36.70
2019-04-05T07:35:06.428Z,36.70
2019-04-05T07:38:16.150Z,36.60
2019-04-05T07:41:20.379Z,37.30
2019-04-05T07:44:24.733Z,36.70
2019-04-05T07:47:29.060Z,36.70
2019-04-05T07:50:33.426Z,36.70
2019-04-05T07:53:37.687Z,36.70
2019-04-05T07:56:46.202Z,36.70
2019-04-05T07:59:49.788Z,36.70
2019-04-05T08:02:54.971Z,36.70
2019-04-05T08:05:58.228Z,36.70
2019-04-05T08:09:08.534Z,36.70
2019-04-05T08:12:12.813Z,36.80
2019-04-05T08:15:16.133Z,36.80
2019-04-05T08:18:20.433Z,36.70
2019-04-05T08:21:25.574Z,36.70
2019-04-05T08:24:28.887Z,36.70
2019-04-05T08:27:37.918Z,36.70
2019-04-05T08:30:48.185Z,36.80
2019-04-05T08:33:57.206Z,36.70
2019-04-05T08:37:00.512Z,36.80
2019-04-05T08:40:06.441Z,36.70
2019-04-05T08:43:09.762Z,36.70
2019-04-05T08:46:14.054Z,36.60
2019-04-05T08:49:17.381Z,36.50
2019-04-05T08:52:20.668Z,36.50
2019-04-05T08:55:24.000Z,37.10
2019-04-05T08:58:33.269Z,36.40
2019-04-05T09:01:33.198Z,36.40
2019-04-05T09:04:37.544Z,36.40
2019-04-05T09:07:46.799Z,36.40
2019-04-05T09:10:51.118Z,36.50
2019-04-05T09:13:55.415Z,36.60
2019-04-05T09:17:09.845Z,36.70
2019-04-05T09:20:16.565Z,36.60
2019-04-05T09:23:21.502Z,36.60
2019-04-05T09:26:26.804Z,36.70
2019-04-05T09:29:34.016Z,36.80
2019-04-05T09:32:40.966Z,36.70
2019-04-05T09:35:45.321Z,36.70
2019-04-05T09:38:49.641Z,36.80
2019-04-05T09:45:52.384Z,36.80
2019-04-05T09:49:11.620Z,36.60
2019-04-05T09:52:15.920Z,36.80
2019-04-05T09:55:22.284Z,36.80
2019-04-05T09:58:28.677Z,36.80
2019-04-05T10:01:32.578Z,36.80
2019-04-05T10:04:39.761Z,36.80
2019-04-05T10:07:54.214Z,36.80
2019-04-05T10:10:49.006Z,36.80
2019-04-05T10:13:52.309Z,36.80
2019-04-05T10:16:57.661Z,36.80
2019-04-05T10:20:00.960Z,36.80
2019-04-05T10:23:05.281Z,36.80
2019-04-05T10:26:09.575Z,36.40
2019-04-05T10:29:12.877Z,36.90
2019-04-05T10:32:18.021Z,36.90
2019-04-05T10:35:23.168Z,36.80
2019-04-05T10:38:26.457Z,36.70
2019-04-05T10:41:29.766Z,36.70
2019-04-05T10:44:34.085Z,36.60
2019-04-05T10:47:38.404Z,36.60
2019-04-05T10:50:41.701Z,36.60
2019-04-05T10:53:45.017Z,36.60
2019-04-05T10:56:54.213Z,36.60
2019-04-05T10:59:57.524Z,36.80
2019-04-05T11:03:03.865Z,36.80
2019-04-05T11:06:07.115Z,36.90
2019-04-05T11:09:12.353Z,36.90
2019-04-05T11:12:15.660Z,37.00
2019-04-05T11:15:19.957Z,36.90
2019-04-05T11:18:24.351Z,37.00
2019-04-05T11:21:27.629Z,36.90
2019-04-05T11:24:32.904Z,36.90
2019-04-05T11:27:36.399Z,37.00
2019-04-05T11:30:47.974Z,37.00
2019-04-05T11:33:51.238Z,37.00
2019-04-05T11:36:58.585Z,36.90
2019-04-05T11:40:08.825Z,37.00
2019-04-05T11:43:12.165Z,36.90
2019-04-05T11:46:20.603Z,36.90
2019-04-05T11:49:23.903Z,36.90
2019-04-05T11:52:27.172Z,37.00
2019-04-05T11:55:31.480Z,37.00
2019-04-05T11:58:34.770Z,37.00
2019-04-05T12:01:39.712Z,37.00
2019-04-05T12:04:44.017Z,36.90
2019-04-05T12:07:47.307Z,36.90
2019-04-05T12:10:51.690Z,36.90
2019-04-05T12:13:54.956Z,36.90
2019-04-05T12:16:59.870Z,36.80
2019-04-05T12:20:03.709Z,36.80
2019-04-05T12:23:07.913Z,36.70
2019-04-05T12:26:14.904Z,36.80
2019-04-05T12:29:18.178Z,36.80
2019-04-05T12:32:33.458Z,36.80
2019-04-05T12:35:29.150Z,36.80
2019-04-05T12:38:34.064Z,36.70
2019-04-05T12:41:38.500Z,36.70
2019-04-05T12:44:45.103Z,36.70
2019-04-05T12:47:48.822Z,36.70
2019-04-05T12:51:01.106Z,36.80
2019-04-05T12:53:58.133Z,36.80
2019-04-05T12:57:01.396Z,36.80
2019-04-05T13:00:13.387Z,36.70
2019-04-05T13:03:16.349Z,36.80
2019-04-05T13:06:22.536Z,36.80
2019-04-05T13:09:26.872Z,36.40
2019-04-05T13:12:32.192Z,36.70
2019-04-05T13:15:38.575Z,36.80
2019-04-05T13:18:42.606Z,36.80
2019-04-05T13:21:52.775Z,36.70
2019-04-05T13:24:56.043Z,36.70
2019-04-05T13:27:59.294Z,36.50
2019-04-05T13:31:03.630Z,36.60
2019-04-05T13:34:06.971Z,36.40
2019-04-05T13:37:20.101Z,36.20
2019-04-05T13:40:16.865Z,36.30
2019-04-05T13:43:22.969Z,36.30
2019-04-05T13:46:33.014Z,36.30
2019-04-05T13:49:38.564Z,36.20
2019-04-05T13:52:42.413Z,36.30
2019-04-05T13:55:47.484Z,36.50
2019-04-05T13:58:51.953Z,36.60
2019-04-05T14:02:05.560Z,36.50
2019-04-05T14:05:02.253Z,36.60
2019-04-05T14:08:10.219Z,36.60
2019-04-05T14:11:11.505Z,36.60
2019-04-05T14:14:14.770Z,36.60
2019-04-05T14:17:18.044Z,36.70
2019-04-05T14:20:24.221Z,36.70
2019-04-05T14:23:27.304Z,36.70
2019-04-05T14:26:34.083Z,36.60
2019-04-05T14:29:38.416Z,36.50
2019-04-05T14:32:41.682Z,36.40
2019-04-05T14:35:45.001Z,36.40
2019-04-05T14:38:48.281Z,36.40
2019-04-05T14:41:52.609Z,36.30
2019-04-05T14:44:55.921Z,36.20
2019-04-05T14:47:59.196Z,36.20
2019-04-05T14:51:05.152Z,36.20
2019-04-05T14:54:09.952Z,36.20
2019-04-05T14:57:13.429Z,36.10
2019-04-05T15:00:17.043Z,36.00
2019-04-05T15:03:21.201Z,36.20
2019-04-05T15:06:26.686Z,36.10
2019-04-05T15:09:29.709Z,36.00
2019-04-05T15:12:33.001Z,36.00
2019-04-05T15:15:36.248Z,36.00
2019-04-05T15:18:39.587Z,36.00
2019-04-05T15:21:44.958Z,36.10
2019-04-05T15:24:48.957Z,36.10
2019-04-05T15:27:55.368Z,36.10
2019-04-05T15:30:57.320Z,36.00
2019-04-05T15:34:00.565Z,36.00
2019-04-05T15:37:03.831Z,36.00
2019-04-05T15:40:07.172Z,36.00
2019-04-05T15:43:10.435Z,36.10
2019-04-05T15:46:15.770Z,36.20
2019-04-05T15:49:26.836Z,36.30
2019-04-05T15:52:32.207Z,36.30
2019-04-05T15:55:35.581Z,36.20
2019-04-05T15:58:38.833Z,36.30
2019-04-05T16:01:44.128Z,36.30
2019-04-05T16:04:47.418Z,36.30
2019-04-05T16:07:50.733Z,36.30
2019-04-05T16:10:56.073Z,36.40
2019-04-05T16:13:59.354Z,36.40
2019-04-05T16:17:04.580Z,36.40
2019-04-05T16:20:14.549Z,35.90
2019-04-05T16:23:18.855Z,36.50
2019-04-05T16:26:22.175Z,36.50
2019-04-05T16:29:28.526Z,36.50
2019-04-05T16:32:32.862Z,36.50
2019-04-05T16:35:36.153Z,36.50
2019-04-05T16:38:40.492Z,36.60
2019-04-05T16:41:43.770Z,36.60
2019-04-05T16:44:49.127Z,36.50
2019-04-05T16:47:52.464Z,36.60
2019-04-05T16:50:55.722Z,37.30
2019-04-05T16:53:59.975Z,36.70
2019-04-05T16:57:04.128Z,36.70
2019-04-05T17:00:09.948Z,36.70
2019-04-05T17:03:13.210Z,36.70
2019-04-05T17:06:16.494Z,36.60
2019-04-05T17:09:19.754Z,36.70
2019-04-05T17:12:24.941Z,36.70
2019-04-05T17:15:28.208Z,36.60
2019-04-05T17:18:33.380Z,36.70
2019-04-05T17:21:36.695Z,36.70
2019-04-05T17:24:39.947Z,36.60
2019-04-05T17:27:43.256Z,36.70
2019-04-05T17:30:46.534Z,36.70
2019-04-05T17:33:51.711Z,36.50
2019-04-05T17:36:54.998Z,36.70
2019-04-05T17:39:58.260Z,36.70
2019-04-05T17:43:01.590Z,36.50
2019-04-05T17:46:05.894Z,36.70
2019-04-05T17:49:09.189Z,36.70
2019-04-05T17:52:13.520Z,36.70
2019-04-05T17:55:16.823Z,36.70
2019-04-05T17:58:20.113Z,36.70
2019-04-05T18:01:27.316Z,36.70
2019-04-05T18:04:31.620Z,36.80
2019-04-05T18:07:34.905Z,36.80
2019-04-05T18:10:38.177Z,36.80
2019-04-05T18:13:41.523Z,36.80
2019-04-05T18:16:44.776Z,36.80
2019-04-05T18:19:53.817Z,36.80
2019-04-05T18:22:57.122Z,36.80
2019-04-05T18:26:01.441Z,36.80
2019-04-05T18:29:04.733Z,36.90
2019-04-05T18:32:09.057Z,36.90
2019-04-05T18:35:13.380Z,36.80
2019-04-05T18:38:16.684Z,36.80
2019-04-05T18:41:19.972Z,36.80
2019-04-05T18:44:24.310Z,36.80
2019-04-05T18:47:28.613Z,36.80
2019-04-05T18:50:37.644Z,36.80
2019-04-05T18:53:41.991Z,36.80
2019-04-05T18:56:53.057Z,36.80
2019-04-05T18:59:56.337Z,36.80
2019-04-05T19:02:59.687Z,36.80
2019-04-05T19:06:02.928Z,36.80
2019-04-05T19:09:08.078Z,36.80
2019-04-05T19:12:11.374Z,36.90
2019-04-05T19:15:14.654Z,36.90
2019-04-05T19:18:18.000Z,36.90
2019-04-05T19:21:21.287Z,36.90
2019-04-05T19:24:24.594Z,36.90
2019-04-05T19:27:27.848Z,36.90
2019-04-05T19:49:02.005Z,36.70
2019-04-05T19:52:12.188Z,36.60
2019-04-05T19:55:17.216Z,36.60
2019-04-05T19:58:22.520Z,36.50
2019-04-05T20:01:25.836Z,36.60
2019-04-05T20:04:29.182Z,36.50
2019-04-05T20:07:34.486Z,36.50
2019-04-05T20:10:37.745Z,36.50
2019-04-05T20:13:41.047Z,36.40
2019-04-05T20:16:44.357Z,36.40
2019-04-05T20:19:47.670Z,36.40
2019-04-05T20:22:50.941Z,36.40
2019-04-05T20:25:56.077Z,36.50
2019-04-05T20:28:59.394Z,36.40
2019-04-05T20:32:03.553Z,36.40
2019-04-05T20:35:07.797Z,36.40
2019-04-05T20:38:11.118Z,36.40
2019-04-05T20:41:16.436Z,36.40
2019-04-05T20:44:21.563Z,36.40
2019-04-05T20:47:24.876Z,36.40
2019-04-05T20:50:28.880Z,36.30
2019-04-05T20:53:34.140Z,36.20
2019-04-05T20:56:38.473Z,36.30
2019-04-05T20:59:42.824Z,36.30
2019-04-05T21:02:46.097Z,36.40
2019-04-05T21:05:49.360Z,36.40
2019-04-05T21:08:52.673Z,36.40
2019-04-05T21:11:55.908Z,36.40
2019-04-05T21:15:00.121Z,36.40
2019-04-05T21:18:03.379Z,36.40
2019-04-05T21:21:06.668Z,36.40
2019-04-05T21:24:14.925Z,36.30
2019-04-05T21:27:18.174Z,36.30
2019-04-05T21:30:22.414Z,36.40
2019-04-05T21:33:25.725Z,36.30
2019-04-05T21:36:29.027Z,36.40
2019-04-05T21:39:38.155Z,36.40
2019-04-05T21:42:41.437Z,36.40
2019-04-05T21:45:44.693Z,36.50
2019-04-05T21:48:47.966Z,36.30
2019-04-05T21:51:51.213Z,36.30
2019-04-05T21:54:54.463Z,36.40
2019-04-05T21:57:59.113Z,36.40
2019-04-05T22:01:06.505Z,36.40
2019-04-05T22:04:09.839Z,36.40
2019-04-05T22:07:13.193Z,36.40
2019-04-05T22:10:16.452Z,36.40
2019-04-05T22:13:19.715Z,36.40
2019-04-05T22:16:23.076Z,36.40
2019-04-05T22:19:33.090Z,36.40
2019-04-05T22:22:36.384Z,36.40
2019-04-05T22:25:39.657Z,36.40
2019-04-05T22:28:42.945Z,36.40
2019-04-05T22:31:46.250Z,36.40
2019-04-05T22:34:49.515Z,36.40
2019-04-05T22:37:54.690Z,36.40
2019-04-05T22:40:58.805Z,36.40
2019-04-05T22:44:04.135Z,36.40
2019-04-05T22:47:14.184Z,36.40
2019-04-05T22:50:17.449Z,36.40
2019-04-05T22:53:20.705Z,36.40
2019-04-05T22:56:24.908Z,36.40
2019-04-05T22:59:28.218Z,36.40
2019-04-05T23:02:31.507Z,36.40
2019-04-05T23:05:34.862Z,36.30
2019-04-05T23:08:38.133Z,36.40
2019-04-05T23:11:41.519Z,36.40
2019-04-05T23:14:44.778Z,36.40
2019-04-05T23:17:52.094Z,36.40
2019-04-05T23:20:57.316Z,36.40
2019-04-05T23:24:07.277Z,36.40
2019-04-05T23:27:10.582Z,36.40
2019-04-05T23:30:14.491Z,36.40
2019-04-05T23:33:17.792Z,36.40
2019-04-05T23:36:23.106Z,36.40
2019-04-05T23:39:27.497Z,36.40
2019-04-05T23:42:30.783Z,36.40
2019-04-05T23:45:35.076Z,36.40
2019-04-05T23:48:39.353Z,36.40
2019-04-05T23:51:42.661Z,36.40
2019-04-05T23:54:45.940Z,36.40
2019-04-05T23:57:49.273Z,36.50
